Rock Stream, New York
Current Conditions -  °F | °C
As of 12:53 AM on Saturday 25 Oct 2014 (Local Time) from KPEO Reporting Station
Clear Clear  
Wind Chill: 45°   Ceiling: Unl
Heat Index: 49°   Visibility: 10mi
Dew Point: 40°   Wind: 10mph
Humidity: 71%   Direction: 190°S
Pressure: 29.91"   Gusts: NA
Location:  42.47°N, 76.93°W
Report Text: KPEO 250453Z AUTO 19009KT 10SM CLR 09/04 A2991 RMK AO2 SLP130 T00940044 401610078
Loading
Personal Weather Stations






























Interactive Weather Map
Tropical Storm Tracking
New forecast layout! Learn more

10-Day Weather Forecast

Advertisements
Track Severe Weather on mobile